Time;durP1;ratioP1;P1;durP2;ratioP2;P2;SDS_P1;SDS_P2;PMS_P1;PMS_P2;Temp;Humidity;BMP_temperature;BMP_pressure;BME280_temperature;BME280_humidity;BME280_pressure;Samples;Min_cycle;Max_cycle;Signal;HPM_P1;HPM_P2
2023/03/16 00:02:23;;;;;;;4.28;1.65;;;;;;;0.79;100.00;100270.84;12166012;19;19910;-81
2023/03/16 00:06:25;;;;;;;4.78;1.92;;;;;;;0.80;100.00;100277.09;12185724;19;20006;-81
2023/03/16 00:10:27;;;;;;;2.10;0.90;;;;;;;0.83;100.00;100276.75;12187598;19;20381;-82
2023/03/16 00:14:30;;;;;;;4.22;1.27;;;;;;;0.85;100.00;100280.97;12232441;19;21314;-82
2023/03/16 00:18:37;;;;;;;3.38;1.48;;;;;;;0.89;100.00;100276.91;12208040;19;20014;-82
2023/03/16 00:22:40;;;;;;;4.50;1.60;;;;;;;0.92;100.00;100275.69;12180247;19;20010;-81
2023/03/16 00:26:42;;;;;;;4.47;1.42;;;;;;;0.91;100.00;100258.56;12188311;19;20010;-82
2023/03/16 00:30:46;;;;;;;4.78;1.40;;;;;;;0.94;100.00;100261.97;12185932;19;20015;-82
2023/03/16 00:34:50;;;;;;;2.95;1.42;;;;;;;0.96;100.00;100257.22;12168035;19;20491;-81
2023/03/16 00:38:52;;;;;;;5.45;1.58;;;;;;;0.96;100.00;100258.06;12184895;19;20007;-81
2023/03/16 00:42:55;;;;;;;4.15;1.33;;;;;;;0.97;100.00;100250.75;12183876;19;20015;-80
2023/03/16 00:46:56;;;;;;;3.13;1.58;;;;;;;0.96;100.00;100243.66;12160133;19;20003;-81
2023/03/16 00:50:58;;;;;;;3.85;1.67;;;;;;;0.94;100.00;100237.53;12180576;19;20150;-80
2023/03/16 00:55:02;;;;;;;4.00;1.50;;;;;;;0.93;100.00;100238.56;12182488;19;20007;-81
2023/03/16 00:59:04;;;;;;;2.65;1.63;;;;;;;0.94;100.00;100235.66;12165535;19;20003;-80
2023/03/16 01:03:06;;;;;;;4.30;1.70;;;;;;;0.96;100.00;100239.06;12190839;19;20030;-81
2023/03/16 01:07:11;;;;;;;2.88;1.35;;;;;;;0.98;100.00;100238.88;12185425;19;20756;-81
2023/03/16 01:11:16;;;;;;;2.88;1.20;;;;;;;1.01;100.00;100236.69;12147710;19;20418;-81
2023/03/16 01:15:18;;;;;;;6.18;1.80;;;;;;;1.06;100.00;100230.69;12173132;19;20018;-81
2023/03/16 01:19:22;;;;;;;3.72;1.42;;;;;;;1.09;100.00;100233.06;12170659;19;20006;-81
2023/03/16 01:23:24;;;;;;;2.45;1.15;;;;;;;1.10;100.00;100227.47;12170171;19;20006;-81
2023/03/16 01:27:25;;;;;;;3.90;1.45;;;;;;;1.12;100.00;100228.09;12168866;19;20085;-80
2023/03/16 01:31:28;;;;;;;3.20;1.70;;;;;;;1.12;100.00;100221.84;12149394;19;20027;-80
2023/03/16 01:35:30;;;;;;;4.07;1.45;;;;;;;1.12;100.00;100224.56;12169025;19;20281;-81
2023/03/16 01:39:32;;;;;;;2.80;1.30;;;;;;;1.13;100.00;100226.22;12165228;19;20105;-80
2023/03/16 01:43:37;;;;;;;3.97;1.42;;;;;;;1.12;100.00;100216.41;12144783;19;20050;-81
2023/03/16 01:47:39;;;;;;;4.93;1.52;;;;;;;0.99;100.00;100206.16;12167966;19;20023;-81
2023/03/16 01:51:51;;;;;;;3.03;1.95;;;;;;;0.86;100.00;100201.31;12167842;19;20018;-81
2023/03/16 01:55:54;;;;;;;3.53;2.05;;;;;;;0.77;100.00;100207.75;12139433;19;20017;-81
2023/03/16 02:00:06;;;;;;;2.25;1.30;;;;;;;0.67;100.00;100202.56;12166855;19;20002;-81
2023/03/16 02:04:25;;;;;;;7.82;1.77;;;;;;;0.58;100.00;100205.50;12163072;19;20110;-80
2023/03/16 02:08:32;;;;;;;2.45;1.23;;;;;;;0.48;100.00;100204.84;12139524;19;20003;-81
2023/03/16 02:12:35;;;;;;;6.00;1.60;;;;;;;0.43;100.00;100195.38;12162199;19;22748;-80
2023/03/16 02:16:39;;;;;;;3.42;1.45;;;;;;;0.41;100.00;100191.97;12138402;19;20037;-80
2023/03/16 02:20:55;;;;;;;5.93;1.73;;;;;;;0.42;100.00;100180.13;12164325;19;20114;-81
2023/03/16 02:24:57;;;;;;;4.72;1.50;;;;;;;0.45;100.00;100192.50;12160401;19;20021;-81
2023/03/16 02:29:24;;;;;;;4.07;1.50;;;;;;;0.48;100.00;100193.97;12138447;19;20702;-80
2023/03/16 02:33:27;;;;;;;3.15;1.73;;;;;;;0.50;100.00;100189.25;12159933;19;20366;-80
2023/03/16 02:37:32;;;;;;;4.40;1.58;;;;;;;0.55;100.00;100184.16;12142155;19;20014;-81
2023/03/16 02:41:34;;;;;;;4.63;1.85;;;;;;;0.59;100.00;100178.19;12163714;19;20178;-80
2023/03/16 02:45:44;;;;;;;2.92;1.45;;;;;;;0.63;100.00;100173.28;12160524;19;21057;-80
2023/03/16 02:49:46;;;;;;;3.47;1.60;;;;;;;0.67;100.00;100166.47;12160808;19;20086;-80
2023/03/16 02:53:49;;;;;;;3.10;1.83;;;;;;;0.70;100.00;100166.09;12199543;19;20468;-80
2023/03/16 02:57:53;;;;;;;2.78;1.58;;;;;;;0.74;100.00;100159.28;12199405;19;20005;-81
2023/03/16 03:01:55;;;;;;;3.90;1.80;;;;;;;0.80;100.00;100155.03;12176496;19;20515;-80
2023/03/16 03:05:57;;;;;;;3.43;1.30;;;;;;;0.78;100.00;100149.78;12194049;19;20027;-81
2023/03/16 03:10:01;;;;;;;5.13;2.03;;;;;;;0.77;100.00;100147.25;12186103;19;20018;-81
2023/03/16 03:14:04;;;;;;;6.10;1.92;;;;;;;0.76;100.00;100148.28;12160626;19;20030;-80
2023/03/16 03:18:07;;;;;;;5.22;2.05;;;;;;;0.80;100.00;100142.31;12184844;19;20018;-80
2023/03/16 03:22:09;;;;;;;5.25;1.77;;;;;;;0.86;100.00;100132.59;12185257;19;20026;-81
2023/03/16 03:26:16;;;;;;;5.05;1.77;;;;;;;0.89;100.00;100135.84;12160166;19;20014;-80
2023/03/16 03:30:20;;;;;;;5.60;1.95;;;;;;;0.90;100.00;100131.25;12184980;19;20013;-81
2023/03/16 03:34:22;;;;;;;5.65;2.25;;;;;;;0.91;100.00;100135.63;12179669;19;20021;-81
2023/03/16 03:38:25;;;;;;;5.23;2.37;;;;;;;0.92;100.00;100123.75;12185029;19;20066;-81
2023/03/16 03:42:28;;;;;;;6.00;1.60;;;;;;;0.93;100.00;100130.88;12184399;19;20288;-81
2023/03/16 03:46:30;;;;;;;6.45;2.30;;;;;;;0.91;100.00;100128.34;12157741;19;20003;-80
2023/03/16 03:50:32;;;;;;;3.13;1.43;;;;;;;0.90;100.00;100133.97;12180728;19;20012;-80
2023/03/16 03:54:53;;;;;;;5.07;1.80;;;;;;;0.89;100.00;100124.09;12181230;19;20054;-82
2023/03/16 03:58:55;;;;;;;6.95;2.10;;;;;;;0.86;100.00;100119.03;12161274;19;20007;-81
2023/03/16 04:03:17;;;;;;;5.50;1.95;;;;;;;0.83;100.00;100122.97;12182168;19;19999;-80
2023/03/16 04:07:19;;;;;;;5.10;1.80;;;;;;;0.78;100.00;100128.09;12185015;19;20006;-82
2023/03/16 04:11:23;;;;;;;4.03;1.83;;;;;;;0.73;100.00;100132.34;12166404;19;20611;-80
2023/03/16 04:15:25;;;;;;;5.60;1.98;;;;;;;0.65;100.00;100138.66;12183269;19;20002;-81
2023/03/16 04:19:38;;;;;;;4.45;1.88;;;;;;;0.58;100.00;100140.41;12166214;19;20027;-82
2023/03/16 04:23:47;;;;;;;4.97;1.85;;;;;;;0.53;100.00;100135.50;12186671;19;20006;-81
2023/03/16 04:27:50;;;;;;;3.80;2.08;;;;;;;0.49;100.00;100136.03;12185879;19;20287;-82
2023/03/16 04:31:52;;;;;;;5.00;2.00;;;;;;;0.45;100.00;100124.72;12168056;19;20035;-82
2023/03/16 04:35:56;;;;;;;8.40;2.10;;;;;;;0.41;100.00;100109.81;12188143;19;20511;-81
2023/03/16 04:39:59;;;;;;;5.95;2.38;;;;;;;0.37;100.00;100114.75;12190118;19;20015;-81
2023/03/16 04:44:01;;;;;;;6.37;2.47;;;;;;;0.36;100.00;100117.66;12168088;19;20037;-81
2023/03/16 04:48:03;;;;;;;4.18;2.17;;;;;;;0.35;100.00;100115.94;12189218;19;19998;-82
2023/03/16 04:52:04;;;;;;;4.47;2.03;;;;;;;0.37;100.00;100114.75;12205307;19;20346;-81
2023/03/16 04:56:07;;;;;;;4.35;1.77;;;;;;;0.39;100.00;100104.56;12199824;19;20252;-84
2023/03/16 05:00:13;;;;;;;4.82;2.00;;;;;;;0.41;100.00;100091.66;12248563;19;20324;-82
2023/03/16 05:04:23;;;;;;;5.63;2.38;;;;;;;0.45;100.00;100106.56;12194229;19;20023;-80
2023/03/16 05:08:25;;;;;;;6.65;2.08;;;;;;;0.50;100.00;100108.75;12191378;19;20016;-80
2023/03/16 05:12:28;;;;;;;;;;;;;;;0.55;100.00;100109.06;12197309;19;20007;-80
2023/03/16 05:16:34;;;;;;;5.65;2.25;;;;;;;0.67;100.00;100120.34;12185607;19;20428;-81
2023/03/16 05:20:36;;;;;;;5.00;2.17;;;;;;;0.75;100.00;100123.03;12251271;19;20006;-83
2023/03/16 05:24:39;;;;;;;8.90;2.47;;;;;;;0.76;100.00;100116.56;12256177;19;20267;-83
2023/03/16 05:28:41;;;;;;;5.65;2.25;;;;;;;0.82;100.00;100112.28;12199421;19;20019;-81
2023/03/16 05:32:47;;;;;;;3.83;1.80;;;;;;;0.88;100.00;100104.28;12184764;19;20010;-82
2023/03/16 05:36:49;;;;;;;5.95;2.78;;;;;;;0.97;100.00;100101.50;12179563;19;20010;-80
2023/03/16 05:40:53;;;;;;;7.22;2.83;;;;;;;0.99;100.00;100102.19;12166178;19;20010;-80
2023/03/16 05:45:15;;;;;;;6.30;2.85;;;;;;;0.99;100.00;100094.03;12235161;19;20072;-82
2023/03/16 05:49:30;;;;;;;5.50;1.83;;;;;;;1.02;100.00;100090.97;12211361;19;20067;-83
2023/03/16 05:53:34;;;;;;;6.35;1.92;;;;;;;1.07;100.00;100089.41;12232735;19;20040;-81
2023/03/16 05:57:43;;;;;;;4.60;1.95;;;;;;;1.09;100.00;100084.63;12217568;19;20010;-80
2023/03/16 06:01:45;;;;;;;6.13;2.20;;;;;;;1.15;100.00;100093.91;12172351;19;20006;-81
2023/03/16 06:05:48;;;;;;;5.05;2.50;;;;;;;1.19;100.00;100086.25;12189398;19;20685;-82
2023/03/16 06:09:54;;;;;;;4.45;2.35;;;;;;;1.21;100.00;100089.63;12190828;19;20765;-81
2023/03/16 06:13:56;;;;;;;4.85;2.10;;;;;;;1.27;100.00;100089.72;12162892;19;20018;-82
2023/03/16 06:18:00;;;;;;;11.90;4.85;;;;;;;1.30;100.00;100083.94;12185525;19;20010;-81
2023/03/16 06:22:02;;;;;;;13.05;4.50;;;;;;;1.36;100.00;100082.34;12184958;19;20005;-81
2023/03/16 06:26:05;;;;;;;15.38;6.13;;;;;;;1.42;100.00;100089.78;12172835;19;20337;-80
2023/03/16 06:30:12;;;;;;;7.43;3.22;;;;;;;1.49;100.00;100087.19;12191709;19;20010;-82
2023/03/16 06:34:13;;;;;;;6.03;2.50;;;;;;;1.57;100.00;100095.22;12192181;19;20089;-81
2023/03/16 06:38:19;;;;;;;3.22;1.58;;;;;;;1.65;100.00;100092.44;12171898;19;20038;-80
2023/03/16 06:42:30;;;;;;;5.85;2.17;;;;;;;1.74;100.00;100096.75;12189541;19;20006;-82
2023/03/16 06:46:34;;;;;;;7.63;2.00;;;;;;;1.89;100.00;100098.66;12166114;19;20468;-82
2023/03/16 06:50:37;;;;;;;5.63;2.03;;;;;;;2.05;100.00;100106.63;12188764;19;20010;-81
2023/03/16 06:54:40;;;;;;;5.82;1.90;;;;;;;2.21;100.00;100101.00;12183184;19;20018;-81
2023/03/16 06:58:48;;;;;;;4.43;2.17;;;;;;;2.39;100.00;100099.78;12167921;19;20035;-80
2023/03/16 07:02:51;;;;;;;4.00;1.65;;;;;;;2.63;100.00;100102.16;12182861;19;20056;-81
2023/03/16 07:06:54;;;;;;;4.38;1.77;;;;;;;2.89;100.00;100106.22;12184585;19;19999;-80
2023/03/16 07:10:56;;;;;;;4.78;2.13;;;;;;;3.16;100.00;100094.56;12164672;19;20005;-81
2023/03/16 07:14:57;;;;;;;4.03;1.80;;;;;;;3.38;100.00;100095.38;12182782;19;21483;-80
2023/03/16 07:19:00;;;;;;;3.63;1.80;;;;;;;3.65;100.00;100092.88;12184755;19;20023;-80
2023/03/16 07:23:03;;;;;;;5.95;1.85;;;;;;;3.93;100.00;100098.34;12164878;19;20035;-82
2023/03/16 07:27:09;;;;;;;4.68;1.77;;;;;;;4.19;100.00;100092.19;12185062;19;20476;-81
2023/03/16 07:31:16;;;;;;;5.22;2.95;;;;;;;4.40;100.00;100093.97;12186446;19;20002;-81
2023/03/16 07:35:20;;;;;;;7.13;2.95;;;;;;;4.63;100.00;100101.84;12159672;19;20091;-82
2023/03/16 07:39:23;;;;;;;5.13;2.42;;;;;;;4.85;100.00;100094.38;12178198;19;20018;-81
2023/03/16 07:43:32;;;;;;;5.40;2.45;;;;;;;5.12;98.75;100095.28;12155679;19;20768;-82
2023/03/16 07:47:35;;;;;;;5.70;2.55;;;;;;;5.22;97.96;100097.59;12189153;19;20006;-81
2023/03/16 07:51:44;;;;;;;4.63;2.20;;;;;;;5.34;97.84;100095.91;12189247;19;20046;-81
2023/03/16 07:55:47;;;;;;;6.28;2.90;;;;;;;5.45;96.68;100089.84;12170170;19;20026;-81
2023/03/16 07:59:50;;;;;;;4.88;2.67;;;;;;;5.63;94.98;100086.47;12194429;19;20006;-82
2023/03/16 08:03:52;;;;;;;5.95;2.60;;;;;;;5.85;92.43;100087.06;12193059;19;20002;-81
2023/03/16 08:07:56;;;;;;;5.32;2.42;;;;;;;6.08;88.85;100081.19;12170357;19;20533;-82
2023/03/16 08:12:05;;;;;;;5.45;2.45;;;;;;;6.29;88.46;100082.81;12189164;19;20013;-82
2023/03/16 08:16:12;;;;;;;4.85;2.60;;;;;;;6.57;87.96;100079.78;12192356;19;20006;-82
2023/03/16 08:20:18;;;;;;;4.18;2.22;;;;;;;6.85;86.86;100081.31;12172387;19;20035;-82
2023/03/16 08:24:21;;;;;;;;;;;;;;;7.14;84.52;100079.03;12188274;19;20496;-83
2023/03/16 08:28:24;;;;;;;5.47;2.40;;;;;;;7.41;82.50;100086.03;12163656;19;19915;-82
2023/03/16 08:32:29;;;;;;;4.45;2.42;;;;;;;7.56;80.08;100085.69;12195911;19;20003;-84
2023/03/16 08:36:32;;;;;;;6.57;2.72;;;;;;;7.63;78.89;100078.25;12192155;19;20003;-82
2023/03/16 08:40:34;;;;;;;8.45;3.05;;;;;;;7.78;78.98;100080.66;12169695;19;20010;-82
2023/03/16 08:44:39;;;;;;;4.82;2.67;;;;;;;7.98;78.10;100074.97;12189208;19;21268;-82
2023/03/16 08:48:41;;;;;;;4.60;2.33;;;;;;;8.19;76.34;100066.31;12196213;19;20010;-81
2023/03/16 08:52:43;;;;;;;6.35;2.97;;;;;;;8.37;74.58;100070.13;12171266;19;20098;-83
2023/03/16 08:56:45;;;;;;;6.63;2.80;;;;;;;8.34;72.02;100070.56;12201678;19;20019;-83
2023/03/16 09:00:46;;;;;;;5.93;3.03;;;;;;;8.39;71.89;100074.34;12199435;19;20468;-82
2023/03/16 09:04:51;;;;;;;3.85;2.25;;;;;;;8.63;71.44;100067.09;12180839;19;20464;-82
2023/03/16 09:08:54;;;;;;;6.18;2.60;;;;;;;8.81;69.83;100068.13;12203415;19;20006;-83
2023/03/16 09:12:56;;;;;;;6.43;3.08;;;;;;;8.98;68.65;100062.81;12205593;19;20007;-82
2023/03/16 09:16:59;;;;;;;6.90;3.25;;;;;;;9.10;66.13;100056.28;12191071;19;20033;-82
2023/03/16 09:21:04;;;;;;;6.50;3.40;;;;;;;9.12;66.73;100056.88;12223472;19;20013;-82
2023/03/16 09:25:07;;;;;;;5.70;3.30;;;;;;;9.37;66.84;100055.88;12218520;19;20014;-84
2023/03/16 09:29:09;;;;;;;11.40;2.90;;;;;;;9.65;66.17;100062.63;12188863;19;19999;-83
2023/03/16 09:33:13;;;;;;;8.60;3.47;;;;;;;9.82;65.29;100066.34;12214548;19;20038;-83
2023/03/16 09:37:15;;;;;;;6.45;3.22;;;;;;;10.12;64.37;100062.63;12213451;19;20006;-82
2023/03/16 09:41:33;;;;;;;;;;;;;;;10.39;63.46;100057.47;12203570;19;20407;-82
2023/03/16 09:45:58;;;;;;;4.88;2.47;;;;;;;10.56;62.81;100054.78;12250811;19;20479;-84
2023/03/16 09:50:07;;;;;;;6.82;3.10;;;;;;;10.72;61.35;100052.09;12218554;19;20015;-83
2023/03/16 09:54:19;;;;;;;5.68;3.13;;;;;;;10.92;60.15;100037.88;12210490;19;21275;-83
2023/03/16 09:58:21;;;;;;;5.03;3.00;;;;;;;11.18;60.19;100043.84;12219445;19;20018;-83
2023/03/16 10:02:42;;;;;;;5.65;3.28;;;;;;;11.20;59.16;100040.88;12191029;19;20003;-82
2023/03/16 10:07:08;;;;;;;7.35;2.75;;;;;;;11.31;58.63;100038.03;12208283;19;20002;-83
2023/03/16 10:11:25;;;;;;;6.63;3.13;;;;;;;11.24;58.54;100039.28;12182611;19;20014;-82
2023/03/16 10:15:32;;;;;;;6.30;3.50;;;;;;;11.27;57.72;100031.31;12193431;19;20043;-81
2023/03/16 10:19:56;;;;;;;5.88;3.65;;;;;;;11.36;57.57;100027.09;12180598;19;20467;-83
2023/03/16 10:24:01;;;;;;;5.65;2.88;;;;;;;11.47;57.87;100032.78;12198180;19;20007;-82
2023/03/16 10:28:02;;;;;;;;;;;;;;;11.50;57.57;100035.03;12195268;19;20067;-81
2023/03/16 10:32:12;;;;;;;5.03;2.58;;;;;;;11.77;57.33;100035.19;12171196;19;19907;-81
2023/03/16 10:36:38;;;;;;;8.93;2.40;;;;;;;11.93;55.20;100019.72;12191590;19;20023;-81
2023/03/16 10:40:40;;;;;;;5.07;2.40;;;;;;;11.74;53.74;100022.72;12180690;19;20003;-81
2023/03/16 10:44:43;;;;;;;7.50;2.70;;;;;;;11.75;55.61;100024.41;12189806;19;20031;-82
2023/03/16 10:48:58;;;;;;;4.00;2.60;;;;;;;12.07;56.55;100024.63;12191508;19;20400;-81
2023/03/16 10:53:01;;;;;;;5.97;3.20;;;;;;;12.28;55.56;100020.25;12183890;19;20010;-81
2023/03/16 10:57:33;;;;;;;4.82;2.72;;;;;;;12.20;54.28;100017.91;12244126;19;19998;-83
2023/03/16 11:01:36;;;;;;;5.05;2.83;;;;;;;12.27;54.23;100012.19;12233166;19;19994;-82
2023/03/16 11:05:38;;;;;;;5.13;2.80;;;;;;;12.50;54.54;100006.41;12209871;19;20023;-81
2023/03/16 11:09:40;;;;;;;4.80;2.77;;;;;;;12.57;51.22;100000.69;12202345;19;20091;-80
2023/03/16 11:13:47;;;;;;;6.43;3.30;;;;;;;12.59;51.67;99998.50;12176264;19;20066;-81
2023/03/16 11:17:54;;;;;;;5.90;3.20;;;;;;;12.45;52.28;99989.75;12192269;19;20015;-81
2023/03/16 11:22:10;;;;;;;4.72;2.85;;;;;;;12.62;51.99;99986.94;12196361;19;20010;-83
2023/03/16 11:26:34;;;;;;;5.53;2.70;;;;;;;12.54;51.58;99979.09;12175383;19;20006;-82
2023/03/16 11:30:42;;;;;;;5.57;3.08;;;;;;;12.50;50.89;99977.94;12202265;19;20002;-82
2023/03/16 11:34:44;;;;;;;4.28;1.55;;;;;;;12.62;50.87;99978.63;12179471;19;21597;-82
2023/03/16 11:39:06;;;;;;;3.63;1.00;;;;;;;12.95;50.42;99971.25;12194730;19;20038;-82
2023/03/16 11:43:39;;;;;;;3.95;1.50;;;;;;;13.43;49.86;99973.06;12195292;19;20511;-80
2023/03/16 11:47:51;;;;;;;;;;;;;;;13.78;47.32;99970.84;12174158;19;20010;-80
2023/03/16 11:52:11;;;;;;;4.60;1.13;;;;;;;14.18;46.79;99961.91;12194480;19;19915;-81
2023/03/16 11:56:40;;;;;;;3.80;1.17;;;;;;;14.24;45.06;99952.50;12182137;19;20019;-80
2023/03/16 12:01:11;;;;;;;2.13;1.10;;;;;;;14.61;43.53;99947.97;12231509;19;20007;-80
2023/03/16 12:06:03;;;;;;;2.22;1.00;;;;;;;14.69;42.88;99930.78;12209629;19;20003;-80
2023/03/16 12:10:35;;;;;;;1.83;0.90;;;;;;;15.04;43.46;99922.50;12220676;19;20014;-81
2023/03/16 12:14:44;;;;;;;3.90;1.00;;;;;;;15.25;41.96;99928.06;12221722;19;20037;-83
2023/03/16 12:19:00;;;;;;;3.63;0.88;;;;;;;15.51;41.57;99926.09;12238165;19;20010;-84
2023/03/16 12:23:12;;;;;;;2.10;1.10;;;;;;;15.60;41.94;99912.47;12209640;19;20003;-84
2023/03/16 12:27:17;;;;;;;4.13;1.33;;;;;;;15.78;41.57;99914.69;12209252;19;20077;-82
2023/03/16 12:31:46;;;;;;;2.28;1.02;;;;;;;15.88;41.57;99911.03;12201642;19;20003;-82
2023/03/16 12:36:02;;;;;;;1.88;1.00;;;;;;;16.08;40.59;99910.97;12169260;19;20007;-82
2023/03/16 12:40:17;;;;;;;1.58;1.00;;;;;;;15.96;38.82;99907.69;12199093;19;20010;-82
2023/03/16 12:44:42;;;;;;;3.60;1.42;;;;;;;15.81;39.76;99910.53;12189586;19;20016;-84
2023/03/16 12:48:53;;;;;;;4.25;0.90;;;;;;;15.78;39.69;99898.03;12204788;19;20017;-83
2023/03/16 12:52:55;;;;;;;1.55;1.17;;;;;;;16.49;40.39;99891.31;12180244;19;20094;-83
2023/03/16 12:57:07;;;;;;;2.33;1.05;;;;;;;17.72;38.28;99896.72;12198324;19;20507;-83
2023/03/16 13:01:14;;;;;;;1.83;1.08;;;;;;;18.27;36.04;99879.66;12192682;19;20038;-84
2023/03/16 13:05:27;;;;;;;2.63;1.10;;;;;;;18.44;36.13;99867.97;12166860;19;20053;-84
2023/03/16 13:09:40;;;;;;;2.67;1.10;;;;;;;18.41;34.87;99868.56;12184731;19;20002;-83
2023/03/16 13:13:52;;;;;;;2.45;1.08;;;;;;;19.21;33.96;99852.81;12167721;19;20043;-83
2023/03/16 13:18:22;;;;;;;1.77;0.90;;;;;;;19.19;32.67;99857.91;12189635;19;20609;-82
2023/03/16 13:22:30;;;;;;;1.65;0.95;;;;;;;18.59;34.70;99853.81;12167637;19;20002;-84
2023/03/16 13:26:44;;;;;;;3.35;1.10;;;;;;;17.87;35.42;99858.69;12194813;19;20474;-83
2023/03/16 13:30:47;;;;;;;2.05;0.90;;;;;;;16.76;36.13;99840.81;12181916;19;20601;-82
2023/03/16 13:34:55;;;;;;;1.77;0.80;;;;;;;17.09;37.32;99853.06;12170045;19;20048;-82
2023/03/16 13:39:21;;;;;;;1.92;0.80;;;;;;;17.08;34.85;99842.22;12200653;19;20006;-82
2023/03/16 13:43:28;;;;;;;2.88;1.02;;;;;;;16.62;35.82;99829.47;12186894;19;20548;-82
2023/03/16 13:47:31;;;;;;;2.70;0.98;;;;;;;16.20;37.00;99827.25;12194277;19;20357;-82
2023/03/16 13:51:36;;;;;;;2.28;1.10;;;;;;;16.48;36.75;99828.47;12201847;19;20090;-83
2023/03/16 13:55:40;;;;;;;4.35;2.03;;;;;;;16.58;36.62;99822.00;12169084;19;20068;-82
2023/03/16 13:59:43;;;;;;;3.15;0.98;;;;;;;16.11;36.14;99815.06;12196281;19;20003;-83
2023/03/16 14:03:47;;;;;;;2.95;1.60;;;;;;;15.95;36.77;99806.00;12195383;19;20015;-83
2023/03/16 14:07:50;;;;;;;3.05;1.10;;;;;;;15.85;37.18;99806.84;12170440;19;20564;-84
2023/03/16 14:11:53;;;;;;;;;;;;;;;15.62;37.12;99801.94;12201237;19;20547;-84
2023/03/16 14:15:59;;;;;;;2.25;0.77;;;;;;;15.56;37.80;99798.34;12232337;19;20344;-84
2023/03/16 14:20:02;;;;;;;2.47;0.80;;;;;;;15.45;37.44;99803.09;12201471;19;20338;-84
2023/03/16 14:24:14;;;;;;;1.05;0.77;;;;;;;15.35;38.37;99794.81;12205311;19;20002;-84
2023/03/16 14:28:19;;;;;;;2.15;1.00;;;;;;;15.26;38.20;99785.38;12207258;19;20010;-84
2023/03/16 14:32:31;;;;;;;1.90;0.75;;;;;;;15.21;38.24;99782.63;12238353;19;20134;-84
2023/03/16 14:36:36;;;;;;;1.60;0.80;;;;;;;15.20;38.31;99780.94;12242701;19;20090;-84
2023/03/16 14:40:39;;;;;;;2.60;0.90;;;;;;;15.19;38.09;99774.56;12189076;19;20006;-84
2023/03/16 14:44:41;;;;;;;1.40;0.85;;;;;;;15.27;38.04;99770.38;12213711;19;20014;-84
2023/03/16 14:48:44;;;;;;;2.40;0.90;;;;;;;15.47;37.59;99763.94;12215608;19;20122;-84
2023/03/16 14:52:46;;;;;;;1.65;0.90;;;;;;;15.54;37.47;99758.91;12199045;19;20011;-84
2023/03/16 14:56:53;;;;;;;2.13;0.90;;;;;;;15.71;37.98;99756.66;12212803;19;20010;-84
2023/03/16 15:00:58;;;;;;;2.58;1.15;;;;;;;15.93;37.77;99747.91;12221576;19;20037;-83
2023/03/16 15:05:01;;;;;;;5.28;1.02;;;;;;;15.96;36.26;99749.28;12201594;19;20071;-83
2023/03/16 15:09:03;;;;;;;2.65;0.82;;;;;;;15.90;36.85;99751.25;12222830;19;20003;-83
2023/03/16 15:13:41;;;;;;;2.97;1.10;;;;;;;15.94;36.13;99744.03;12226320;19;21031;-83
2023/03/16 15:17:44;;;;;;;2.30;1.10;;;;;;;15.73;36.39;99745.22;12201520;19;20077;-82
2023/03/16 15:21:46;;;;;;;1.75;1.10;;;;;;;15.79;37.52;99738.53;12218132;19;20010;-82
2023/03/16 15:25:48;;;;;;;2.00;1.25;;;;;;;15.59;37.44;99733.91;12185455;19;20021;-83
2023/03/16 15:29:51;;;;;;;3.15;0.95;;;;;;;15.23;37.67;99736.00;12208750;19;20006;-81
2023/03/16 15:33:52;;;;;;;3.22;1.95;;;;;;;14.97;38.09;99727.72;12211546;19;20002;-85
2023/03/16 15:37:55;;;;;;;3.58;0.90;;;;;;;14.80;38.48;99728.03;12190467;19;20425;-85
2023/03/16 15:41:56;;;;;;;2.35;1.20;;;;;;;14.69;38.66;99733.84;12214905;19;20007;-83
2023/03/16 15:46:02;;;;;;;5.50;2.28;;;;;;;14.67;39.19;99725.00;12214147;19;20011;-83
2023/03/16 15:50:08;;;;;;;1.58;0.93;;;;;;;14.57;39.79;99717.50;12196170;19;20006;-84
2023/03/16 15:54:10;;;;;;;2.40;1.33;;;;;;;14.45;40.56;99714.16;12222483;19;20015;-84
2023/03/16 15:58:24;;;;;;;2.85;0.95;;;;;;;14.42;40.44;99715.53;12212497;19;20547;-84
2023/03/16 16:02:31;;;;;;;1.73;1.00;;;;;;;14.37;40.64;99707.25;12188477;19;20500;-83
2023/03/16 16:06:32;;;;;;;2.60;1.13;;;;;;;14.23;40.95;99715.28;12210764;19;20007;-83
2023/03/16 16:10:34;;;;;;;2.13;0.88;;;;;;;14.10;41.52;99705.56;12188257;19;20107;-83
2023/03/16 16:14:36;;;;;;;2.83;1.10;;;;;;;13.90;42.33;99705.53;12212379;19;21399;-83
2023/03/16 16:18:38;;;;;;;2.60;1.25;;;;;;;13.67;42.98;99698.56;12216689;19;20014;-83
2023/03/16 16:22:41;;;;;;;4.05;1.30;;;;;;;13.42;44.05;99686.31;12192666;19;20091;-82
2023/03/16 16:26:47;;;;;;;1.87;1.33;;;;;;;13.21;44.31;99685.38;12230648;19;20010;-83
2023/03/16 16:30:57;;;;;;;2.58;1.10;;;;;;;13.01;45.20;99704.66;12224497;19;20021;-82
2023/03/16 16:35:26;;;;;;;3.45;1.65;;;;;;;12.77;45.70;99705.06;12219683;19;19999;-82
2023/03/16 16:39:28;;;;;;;2.47;1.42;;;;;;;12.62;46.02;99704.13;12271090;19;20006;-83
2023/03/16 16:43:40;;;;;;;3.58;1.38;;;;;;;12.49;47.18;99699.88;12207847;19;20070;-82
2023/03/16 16:47:42;;;;;;;2.63;1.38;;;;;;;12.28;47.71;99693.38;12202702;19;20006;-83
2023/03/16 16:51:45;;;;;;;5.70;1.23;;;;;;;12.07;48.93;99684.91;12208023;19;20002;-82
2023/03/16 16:55:47;;;;;;;;;;;;;;;11.84;50.26;99690.75;12179879;19;20014;-82
2023/03/16 16:59:49;;;;;;;3.50;1.05;;;;;;;11.68;50.19;99695.25;12199409;19;19907;-83
2023/03/16 17:03:51;;;;;;;3.33;1.63;;;;;;;11.53;50.86;99695.09;12203718;19;20006;-83
2023/03/16 17:07:52;;;;;;;3.53;1.37;;;;;;;11.35;51.83;99702.63;12179117;19;20723;-82
2023/03/16 17:11:57;;;;;;;3.40;1.40;;;;;;;11.10;53.50;99713.34;12201987;19;20007;-82
2023/03/16 17:15:59;;;;;;;3.92;1.50;;;;;;;10.82;54.35;99698.63;12207315;19;20093;-82
2023/03/16 17:20:04;;;;;;;3.17;1.37;;;;;;;10.57;56.18;99695.53;12189159;19;20010;-81
2023/03/16 17:24:06;;;;;;;2.28;1.20;;;;;;;10.36;56.23;99689.69;12217931;19;20424;-82
2023/03/16 17:28:08;;;;;;;3.90;1.20;;;;;;;10.14;57.72;99681.34;12263032;19;20048;-82
2023/03/16 17:32:23;;;;;;;2.97;1.40;;;;;;;9.90;58.76;99680.63;12239725;19;20021;-82
2023/03/16 17:36:25;;;;;;;4.70;1.75;;;;;;;9.70;59.28;99675.63;12254706;19;20027;-82
2023/03/16 17:40:28;;;;;;;4.22;2.13;;;;;;;9.48;59.96;99672.72;12235366;19;19994;-81
2023/03/16 17:44:36;;;;;;;3.67;2.23;;;;;;;9.32;62.08;99673.50;12240647;19;20066;-82
2023/03/16 17:48:39;;;;;;;4.40;2.08;;;;;;;9.20;62.21;99669.97;12219458;19;20481;-83
2023/03/16 17:52:40;;;;;;;5.03;2.73;;;;;;;9.06;63.38;99675.72;12196695;19;20002;-82
2023/03/16 17:56:44;;;;;;;2.63;1.75;;;;;;;8.99;63.32;99669.56;12214946;19;20427;-83
2023/03/16 18:00:48;;;;;;;4.82;1.95;;;;;;;8.85;63.61;99668.16;12214764;19;20010;-83
2023/03/16 18:04:50;;;;;;;3.47;1.92;;;;;;;8.72;65.51;99662.94;12192564;19;20687;-83
2023/03/16 18:08:52;;;;;;;9.50;3.38;;;;;;;8.64;65.79;99655.88;12214425;19;20011;-83
2023/03/16 18:13:02;;;;;;;5.13;2.83;;;;;;;8.58;66.93;99645.84;12212582;19;20002;-82
2023/03/16 18:17:25;;;;;;;7.00;3.67;;;;;;;8.53;67.23;99640.25;12193932;19;20391;-82
2023/03/16 18:21:28;;;;;;;4.43;2.40;;;;;;;8.48;66.94;99637.38;12207350;19;20029;-83
2023/03/16 18:25:37;;;;;;;3.23;1.83;;;;;;;8.41;68.22;99632.00;12196192;19;20006;-82
2023/03/16 18:29:41;;;;;;;4.03;2.10;;;;;;;8.34;69.12;99640.34;12229292;19;20602;-82
2023/03/16 18:33:45;;;;;;;5.05;2.65;;;;;;;8.41;69.16;99632.00;12220290;19;20006;-82
2023/03/16 18:37:47;;;;;;;6.07;3.22;;;;;;;8.45;68.93;99635.97;12208221;19;20011;-82
2023/03/16 18:41:49;;;;;;;7.17;2.67;;;;;;;8.46;69.15;99623.06;12228835;19;19998;-82
2023/03/16 18:45:51;;;;;;;5.97;2.67;;;;;;;8.47;69.41;99624.72;12222148;19;20023;-82
2023/03/16 18:49:55;;;;;;;7.40;3.35;;;;;;;8.49;69.63;99620.69;12205710;19;20031;-81
2023/03/16 18:53:57;;;;;;;7.00;3.42;;;;;;;8.45;69.24;99616.75;12229145;19;20017;-82
2023/03/16 18:57:59;;;;;;;5.68;3.20;;;;;;;8.44;68.59;99609.56;12227507;19;20006;-82
2023/03/16 19:02:00;;;;;;;9.63;4.35;;;;;;;8.36;69.28;99610.75;12206338;19;20471;-81
2023/03/16 19:06:04;;;;;;;7.40;3.67;;;;;;;8.33;69.31;99610.38;12244935;19;20011;-82